KMRN/MRN METAR and TAF weather

Enter ICAO airport designator
Station Type Date Time Source
KMRN METAR 2019/08/25 19:55 UTC NOAA

KMRN 251955Z AUTO 00000KT 10SM SCT028 OVC037 21/15 A3017 RMK AO2 T02120148


Station Type Date Time Source
KMRN Decoded METAR 2019/08/25 19:55 UTC NOAA

Station name not available
Aug 25, 2019 - 03:55 PM EDT / 2019.08.25 1955 UTC
Wind: Calm:0
Visibility: 10 mile(s):0
Sky conditions: overcast
Temperature: 70.2 F (21.2 C)
Dew Point: 58.6 F (14.8 C)
Relative Humidity: 66%
Pressure (altimeter): 30.17 in. Hg (1021 hPa)
ob: KMRN 251955Z AUTO 00000KT 10SM SCT028 OVC037 21/15 A3017 RMK AO2 T02120148
cycle: 20

Station Type Date Time Source
KMRN TAF UTC NOAA

Error!

Example: see airport list